sensor_id;sensor_type;location;lat;lon;timestamp;P1;durP1;ratioP1;P2;durP2;ratioP2
66175;SDS011;52977;44.816;20.538;2023-08-21T00:01:22;20.40;;;10.27;;
66175;SDS011;52977;44.816;20.538;2023-08-21T00:03:48;15.82;;;10.07;;
66175;SDS011;52977;44.816;20.538;2023-08-21T00:06:15;17.35;;;9.70;;
66175;SDS011;52977;44.816;20.538;2023-08-21T00:08:41;16.85;;;10.48;;
66175;SDS011;52977;44.816;20.538;2023-08-21T00:11:07;14.52;;;10.23;;
66175;SDS011;52977;44.816;20.538;2023-08-21T00:13:33;16.08;;;11.20;;
66175;SDS011;52977;44.816;20.538;2023-08-21T00:16:00;20.48;;;11.68;;
66175;SDS011;52977;44.816;20.538;2023-08-21T00:18:26;17.40;;;10.40;;
66175;SDS011;52977;44.816;20.538;2023-08-21T00:20:52;17.77;;;10.52;;
66175;SDS011;52977;44.816;20.538;2023-08-21T00:23:18;19.55;;;11.80;;
66175;SDS011;52977;44.816;20.538;2023-08-21T00:25:47;17.35;;;11.40;;
66175;SDS011;52977;44.816;20.538;2023-08-21T00:28:13;18.05;;;11.93;;
66175;SDS011;52977;44.816;20.538;2023-08-21T00:30:41;15.50;;;11.50;;
66175;SDS011;52977;44.816;20.538;2023-08-21T00:33:08;19.80;;;12.75;;
66175;SDS011;52977;44.816;20.538;2023-08-21T00:35:33;17.13;;;11.48;;
66175;SDS011;52977;44.816;20.538;2023-08-21T00:37:59;20.08;;;12.20;;
66175;SDS011;52977;44.816;20.538;2023-08-21T00:40:25;17.15;;;11.18;;
66175;SDS011;52977;44.816;20.538;2023-08-21T00:42:50;16.38;;;11.40;;
66175;SDS011;52977;44.816;20.538;2023-08-21T00:45:16;15.90;;;10.82;;
66175;SDS011;52977;44.816;20.538;2023-08-21T00:47:42;17.55;;;11.15;;
66175;SDS011;52977;44.816;20.538;2023-08-21T00:50:08;20.05;;;11.65;;
66175;SDS011;52977;44.816;20.538;2023-08-21T00:52:36;18.38;;;11.57;;
66175;SDS011;52977;44.816;20.538;2023-08-21T00:55:05;19.67;;;11.95;;
66175;SDS011;52977;44.816;20.538;2023-08-21T00:57:33;15.75;;;11.07;;
66175;SDS011;52977;44.816;20.538;2023-08-21T01:00:02;19.55;;;11.98;;
66175;SDS011;52977;44.816;20.538;2023-08-21T01:02:29;17.33;;;11.25;;
66175;SDS011;52977;44.816;20.538;2023-08-21T01:08:13;13.73;;;10.52;;
66175;SDS011;52977;44.816;20.538;2023-08-21T01:11:18;18.63;;;12.02;;
66175;SDS011;52977;44.816;20.538;2023-08-21T01:16:26;16.10;;;11.25;;
66175;SDS011;52977;44.816;20.538;2023-08-21T01:18:53;17.17;;;11.60;;
66175;SDS011;52977;44.816;20.538;2023-08-21T01:21:20;17.13;;;11.57;;
66175;SDS011;52977;44.816;20.538;2023-08-21T01:23:46;16.70;;;11.82;;
66175;SDS011;52977;44.816;20.538;2023-08-21T01:26:12;18.95;;;12.20;;
66175;SDS011;52977;44.816;20.538;2023-08-21T01:28:38;18.17;;;11.65;;
66175;SDS011;52977;44.816;20.538;2023-08-21T01:33:47;16.42;;;11.82;;
66175;SDS011;52977;44.816;20.538;2023-08-21T01:36:16;18.48;;;11.68;;
66175;SDS011;52977;44.816;20.538;2023-08-21T01:38:43;18.90;;;11.27;;
66175;SDS011;52977;44.816;20.538;2023-08-21T01:41:10;20.63;;;11.40;;
66175;SDS011;52977;44.816;20.538;2023-08-21T01:43:37;16.83;;;11.15;;
66175;SDS011;52977;44.816;20.538;2023-08-21T01:46:03;16.83;;;11.82;;
66175;SDS011;52977;44.816;20.538;2023-08-21T01:48:29;17.13;;;12.25;;
66175;SDS011;52977;44.816;20.538;2023-08-21T01:50:54;17.85;;;12.35;;
66175;SDS011;52977;44.816;20.538;2023-08-21T01:53:21;19.17;;;13.05;;
66175;SDS011;52977;44.816;20.538;2023-08-21T01:55:46;17.00;;;12.18;;
66175;SDS011;52977;44.816;20.538;2023-08-21T01:58:12;19.40;;;12.30;;
66175;SDS011;52977;44.816;20.538;2023-08-21T02:00:38;18.25;;;12.43;;
66175;SDS011;52977;44.816;20.538;2023-08-21T02:03:03;18.67;;;13.25;;
66175;SDS011;52977;44.816;20.538;2023-08-21T02:05:29;19.33;;;13.13;;
66175;SDS011;52977;44.816;20.538;2023-08-21T02:07:55;16.08;;;11.95;;
66175;SDS011;52977;44.816;20.538;2023-08-21T02:10:20;16.65;;;11.65;;
66175;SDS011;52977;44.816;20.538;2023-08-21T02:12:46;18.48;;;13.00;;
66175;SDS011;52977;44.816;20.538;2023-08-21T02:15:12;18.35;;;12.10;;
66175;SDS011;52977;44.816;20.538;2023-08-21T02:17:37;17.15;;;12.20;;
66175;SDS011;52977;44.816;20.538;2023-08-21T02:20:03;18.60;;;12.50;;
66175;SDS011;52977;44.816;20.538;2023-08-21T02:22:29;20.27;;;13.20;;
66175;SDS011;52977;44.816;20.538;2023-08-21T02:24:54;22.33;;;13.18;;
66175;SDS011;52977;44.816;20.538;2023-08-21T02:27:21;19.55;;;13.38;;
66175;SDS011;52977;44.816;20.538;2023-08-21T02:29:46;21.35;;;12.23;;
66175;SDS011;52977;44.816;20.538;2023-08-21T02:32:12;20.27;;;13.00;;
66175;SDS011;52977;44.816;20.538;2023-08-21T02:34:39;19.52;;;12.60;;
66175;SDS011;52977;44.816;20.538;2023-08-21T02:37:04;18.02;;;12.55;;
66175;SDS011;52977;44.816;20.538;2023-08-21T02:39:30;22.45;;;13.43;;
66175;SDS011;52977;44.816;20.538;2023-08-21T02:41:56;17.35;;;12.07;;
66175;SDS011;52977;44.816;20.538;2023-08-21T02:44:22;16.25;;;11.90;;
66175;SDS011;52977;44.816;20.538;2023-08-21T02:46:47;18.05;;;11.85;;
66175;SDS011;52977;44.816;20.538;2023-08-21T02:49:13;19.33;;;12.45;;
66175;SDS011;52977;44.816;20.538;2023-08-21T02:51:39;17.95;;;12.63;;
66175;SDS011;52977;44.816;20.538;2023-08-21T02:54:04;18.58;;;12.43;;
66175;SDS011;52977;44.816;20.538;2023-08-21T02:56:30;18.65;;;12.80;;
66175;SDS011;52977;44.816;20.538;2023-08-21T02:58:56;19.05;;;12.27;;
66175;SDS011;52977;44.816;20.538;2023-08-21T03:01:21;20.42;;;13.13;;
66175;SDS011;52977;44.816;20.538;2023-08-21T03:03:47;18.17;;;12.55;;
66175;SDS011;52977;44.816;20.538;2023-08-21T03:06:14;18.30;;;12.77;;
66175;SDS011;52977;44.816;20.538;2023-08-21T03:08:41;17.42;;;12.43;;
66175;SDS011;52977;44.816;20.538;2023-08-21T03:11:09;18.98;;;12.50;;
66175;SDS011;52977;44.816;20.538;2023-08-21T03:13:34;16.23;;;12.15;;
66175;SDS011;52977;44.816;20.538;2023-08-21T03:16:01;16.33;;;11.52;;
66175;SDS011;52977;44.816;20.538;2023-08-21T03:18:30;19.33;;;13.02;;
66175;SDS011;52977;44.816;20.538;2023-08-21T03:20:57;16.25;;;12.35;;
66175;SDS011;52977;44.816;20.538;2023-08-21T03:23:23;18.27;;;12.70;;
66175;SDS011;52977;44.816;20.538;2023-08-21T03:25:52;19.02;;;12.70;;
66175;SDS011;52977;44.816;20.538;2023-08-21T03:28:18;18.73;;;12.38;;
66175;SDS011;52977;44.816;20.538;2023-08-21T03:30:44;16.67;;;11.77;;
66175;SDS011;52977;44.816;20.538;2023-08-21T03:33:09;19.25;;;12.38;;
66175;SDS011;52977;44.816;20.538;2023-08-21T03:35:36;20.92;;;12.73;;
66175;SDS011;52977;44.816;20.538;2023-08-21T03:38:02;19.48;;;12.75;;
66175;SDS011;52977;44.816;20.538;2023-08-21T03:40:33;20.55;;;12.68;;
66175;SDS011;52977;44.816;20.538;2023-08-21T03:42:59;16.25;;;11.80;;
66175;SDS011;52977;44.816;20.538;2023-08-21T03:45:24;21.08;;;12.55;;
66175;SDS011;52977;44.816;20.538;2023-08-21T03:47:53;22.83;;;12.93;;
66175;SDS011;52977;44.816;20.538;2023-08-21T03:50:19;18.42;;;11.80;;
66175;SDS011;52977;44.816;20.538;2023-08-21T03:52:45;18.08;;;12.48;;
66175;SDS011;52977;44.816;20.538;2023-08-21T03:55:11;17.73;;;12.13;;
66175;SDS011;52977;44.816;20.538;2023-08-21T03:57:36;21.05;;;12.35;;
66175;SDS011;52977;44.816;20.538;2023-08-21T04:00:04;21.42;;;12.57;;
66175;SDS011;52977;44.816;20.538;2023-08-21T04:02:40;20.58;;;13.02;;
66175;SDS011;52977;44.816;20.538;2023-08-21T04:05:06;19.05;;;13.18;;
66175;SDS011;52977;44.816;20.538;2023-08-21T04:07:32;20.65;;;13.65;;
66175;SDS011;52977;44.816;20.538;2023-08-21T04:09:59;18.45;;;12.70;;
66175;SDS011;52977;44.816;20.538;2023-08-21T04:12:25;19.83;;;12.90;;
66175;SDS011;52977;44.816;20.538;2023-08-21T04:14:51;17.95;;;12.77;;
66175;SDS011;52977;44.816;20.538;2023-08-21T04:17:23;22.77;;;13.52;;
66175;SDS011;52977;44.816;20.538;2023-08-21T04:19:49;20.75;;;13.68;;
66175;SDS011;52977;44.816;20.538;2023-08-21T04:22:16;21.02;;;13.40;;
66175;SDS011;52977;44.816;20.538;2023-08-21T04:24:42;17.85;;;12.57;;
66175;SDS011;52977;44.816;20.538;2023-08-21T04:27:07;20.35;;;13.43;;
66175;SDS011;52977;44.816;20.538;2023-08-21T04:29:35;23.15;;;13.55;;
66175;SDS011;52977;44.816;20.538;2023-08-21T04:32:01;21.58;;;14.15;;
66175;SDS011;52977;44.816;20.538;2023-08-21T04:34:26;19.65;;;12.98;;
66175;SDS011;52977;44.816;20.538;2023-08-21T04:36:52;22.02;;;14.90;;
66175;SDS011;52977;44.816;20.538;2023-08-21T04:39:18;19.05;;;12.68;;
66175;SDS011;52977;44.816;20.538;2023-08-21T04:41:45;23.13;;;13.65;;
66175;SDS011;52977;44.816;20.538;2023-08-21T04:44:11;19.20;;;13.18;;
66175;SDS011;52977;44.816;20.538;2023-08-21T04:46:36;17.50;;;13.13;;
66175;SDS011;52977;44.816;20.538;2023-08-21T04:49:03;21.08;;;13.32;;
66175;SDS011;52977;44.816;20.538;2023-08-21T04:51:28;19.73;;;13.68;;
66175;SDS011;52977;44.816;20.538;2023-08-21T04:53:57;20.77;;;13.65;;
66175;SDS011;52977;44.816;20.538;2023-08-21T04:56:25;18.40;;;12.68;;
66175;SDS011;52977;44.816;20.538;2023-08-21T04:58:52;21.17;;;13.13;;
66175;SDS011;52977;44.816;20.538;2023-08-21T05:01:18;17.40;;;13.27;;
66175;SDS011;52977;44.816;20.538;2023-08-21T05:03:47;18.17;;;12.63;;
66175;SDS011;52977;44.816;20.538;2023-08-21T05:06:12;19.40;;;13.82;;
66175;SDS011;52977;44.816;20.538;2023-08-21T05:08:38;22.45;;;13.57;;
66175;SDS011;52977;44.816;20.538;2023-08-21T05:11:06;23.88;;;13.88;;
66175;SDS011;52977;44.816;20.538;2023-08-21T05:13:35;21.40;;;13.90;;
66175;SDS011;52977;44.816;20.538;2023-08-21T05:16:01;24.00;;;15.10;;
66175;SDS011;52977;44.816;20.538;2023-08-21T05:18:31;19.65;;;12.95;;
66175;SDS011;52977;44.816;20.538;2023-08-21T05:20:57;19.80;;;13.50;;
66175;SDS011;52977;44.816;20.538;2023-08-21T05:23:23;19.88;;;13.45;;
66175;SDS011;52977;44.816;20.538;2023-08-21T05:25:51;21.80;;;13.43;;
66175;SDS011;52977;44.816;20.538;2023-08-21T05:28:17;22.73;;;14.50;;
66175;SDS011;52977;44.816;20.538;2023-08-21T05:30:42;21.25;;;14.05;;
66175;SDS011;52977;44.816;20.538;2023-08-21T05:33:08;18.17;;;13.05;;
66175;SDS011;52977;44.816;20.538;2023-08-21T05:35:35;22.08;;;13.80;;
66175;SDS011;52977;44.816;20.538;2023-08-21T05:38:02;20.52;;;13.52;;
66175;SDS011;52977;44.816;20.538;2023-08-21T05:40:29;21.23;;;13.25;;
66175;SDS011;52977;44.816;20.538;2023-08-21T05:42:55;21.58;;;12.82;;
66175;SDS011;52977;44.816;20.538;2023-08-21T05:45:21;24.33;;;14.38;;
66175;SDS011;52977;44.816;20.538;2023-08-21T05:47:48;20.00;;;13.20;;
66175;SDS011;52977;44.816;20.538;2023-08-21T05:50:14;21.38;;;13.30;;
66175;SDS011;52977;44.816;20.538;2023-08-21T05:52:39;25.00;;;13.23;;
66175;SDS011;52977;44.816;20.538;2023-08-21T05:55:07;18.13;;;12.27;;
66175;SDS011;52977;44.816;20.538;2023-08-21T05:57:32;21.15;;;12.85;;
66175;SDS011;52977;44.816;20.538;2023-08-21T05:59:58;19.38;;;11.75;;
66175;SDS011;52977;44.816;20.538;2023-08-21T06:02:26;22.60;;;13.82;;
66175;SDS011;52977;44.816;20.538;2023-08-21T06:04:51;23.25;;;13.98;;
66175;SDS011;52977;44.816;20.538;2023-08-21T06:07:19;20.63;;;14.10;;
66175;SDS011;52977;44.816;20.538;2023-08-21T06:09:45;21.48;;;12.75;;
66175;SDS011;52977;44.816;20.538;2023-08-21T06:12:11;23.65;;;15.30;;
66175;SDS011;52977;44.816;20.538;2023-08-21T06:14:39;22.23;;;13.95;;
66175;SDS011;52977;44.816;20.538;2023-08-21T06:17:06;23.15;;;13.75;;
66175;SDS011;52977;44.816;20.538;2023-08-21T06:19:32;20.90;;;12.65;;
66175;SDS011;52977;44.816;20.538;2023-08-21T06:21:59;21.25;;;13.82;;
66175;SDS011;52977;44.816;20.538;2023-08-21T06:24:25;18.83;;;12.02;;
66175;SDS011;52977;44.816;20.538;2023-08-21T06:26:57;21.65;;;13.82;;
66175;SDS011;52977;44.816;20.538;2023-08-21T06:29:23;17.92;;;12.85;;
66175;SDS011;52977;44.816;20.538;2023-08-21T06:31:50;22.17;;;13.02;;
66175;SDS011;52977;44.816;20.538;2023-08-21T06:34:16;19.80;;;12.68;;
66175;SDS011;52977;44.816;20.538;2023-08-21T06:36:43;27.10;;;15.15;;
66175;SDS011;52977;44.816;20.538;2023-08-21T06:39:09;22.00;;;14.23;;
66175;SDS011;52977;44.816;20.538;2023-08-21T06:41:35;22.23;;;14.43;;
66175;SDS011;52977;44.816;20.538;2023-08-21T06:44:01;25.23;;;13.93;;
66175;SDS011;52977;44.816;20.538;2023-08-21T06:46:28;20.65;;;13.77;;
66175;SDS011;52977;44.816;20.538;2023-08-21T06:48:54;24.45;;;13.60;;
66175;SDS011;52977;44.816;20.538;2023-08-21T06:51:21;24.65;;;14.55;;
66175;SDS011;52977;44.816;20.538;2023-08-21T06:53:47;24.20;;;13.95;;
66175;SDS011;52977;44.816;20.538;2023-08-21T06:56:14;22.52;;;14.30;;
66175;SDS011;52977;44.816;20.538;2023-08-21T06:58:41;20.65;;;12.38;;
66175;SDS011;52977;44.816;20.538;2023-08-21T07:01:07;21.80;;;12.75;;
66175;SDS011;52977;44.816;20.538;2023-08-21T07:03:33;22.83;;;14.02;;
66175;SDS011;52977;44.816;20.538;2023-08-21T07:06:00;20.52;;;13.77;;
66175;SDS011;52977;44.816;20.538;2023-08-21T07:08:27;24.90;;;14.15;;
66175;SDS011;52977;44.816;20.538;2023-08-21T07:10:53;24.05;;;13.15;;
66175;SDS011;52977;44.816;20.538;2023-08-21T07:13:19;19.80;;;12.50;;
66175;SDS011;52977;44.816;20.538;2023-08-21T07:15:46;23.27;;;13.38;;
66175;SDS011;52977;44.816;20.538;2023-08-21T07:18:13;22.88;;;13.05;;
66175;SDS011;52977;44.816;20.538;2023-08-21T07:20:40;23.00;;;13.23;;
66175;SDS011;52977;44.816;20.538;2023-08-21T07:23:06;23.55;;;14.05;;
66175;SDS011;52977;44.816;20.538;2023-08-21T07:25:32;23.55;;;14.38;;
66175;SDS011;52977;44.816;20.538;2023-08-21T07:27:58;24.88;;;14.00;;
66175;SDS011;52977;44.816;20.538;2023-08-21T07:30:24;23.25;;;14.07;;
66175;SDS011;52977;44.816;20.538;2023-08-21T07:32:52;23.95;;;13.50;;
66175;SDS011;52977;44.816;20.538;2023-08-21T07:35:18;20.23;;;12.88;;
66175;SDS011;52977;44.816;20.538;2023-08-21T07:37:46;27.60;;;14.40;;
66175;SDS011;52977;44.816;20.538;2023-08-21T07:40:12;24.83;;;13.02;;
66175;SDS011;52977;44.816;20.538;2023-08-21T07:42:39;23.88;;;13.85;;
66175;SDS011;52977;44.816;20.538;2023-08-21T07:45:05;32.60;;;16.08;;
66175;SDS011;52977;44.816;20.538;2023-08-21T07:47:32;26.50;;;15.50;;
66175;SDS011;52977;44.816;20.538;2023-08-21T07:49:58;27.77;;;16.65;;
66175;SDS011;52977;44.816;20.538;2023-08-21T07:52:24;31.73;;;17.05;;
66175;SDS011;52977;44.816;20.538;2023-08-21T07:54:51;24.48;;;13.95;;
66175;SDS011;52977;44.816;20.538;2023-08-21T07:57:18;26.45;;;14.73;;
66175;SDS011;52977;44.816;20.538;2023-08-21T07:59:44;25.80;;;14.68;;
66175;SDS011;52977;44.816;20.538;2023-08-21T08:02:10;20.48;;;14.02;;
66175;SDS011;52977;44.816;20.538;2023-08-21T08:04:38;25.85;;;15.25;;
66175;SDS011;52977;44.816;20.538;2023-08-21T08:07:05;30.33;;;16.40;;
66175;SDS011;52977;44.816;20.538;2023-08-21T08:09:31;25.80;;;16.38;;
66175;SDS011;52977;44.816;20.538;2023-08-21T08:11:57;30.77;;;17.20;;
66175;SDS011;52977;44.816;20.538;2023-08-21T08:14:23;26.35;;;15.63;;
66175;SDS011;52977;44.816;20.538;2023-08-21T08:16:49;30.77;;;17.20;;
66175;SDS011;52977;44.816;20.538;2023-08-21T08:19:16;29.42;;;16.38;;
66175;SDS011;52977;44.816;20.538;2023-08-21T08:21:42;26.13;;;15.93;;
66175;SDS011;52977;44.816;20.538;2023-08-21T08:24:08;30.45;;;16.10;;
66175;SDS011;52977;44.816;20.538;2023-08-21T08:26:34;26.17;;;15.07;;
66175;SDS011;52977;44.816;20.538;2023-08-21T08:29:00;24.17;;;14.70;;
66175;SDS011;52977;44.816;20.538;2023-08-21T08:31:27;18.50;;;13.18;;
66175;SDS011;52977;44.816;20.538;2023-08-21T08:33:53;22.98;;;14.38;;
66175;SDS011;52977;44.816;20.538;2023-08-21T08:36:19;25.85;;;15.45;;
66175;SDS011;52977;44.816;20.538;2023-08-21T08:38:45;23.35;;;14.38;;
66175;SDS011;52977;44.816;20.538;2023-08-21T08:41:14;23.70;;;14.57;;
66175;SDS011;52977;44.816;20.538;2023-08-21T08:43:50;20.38;;;13.18;;
66175;SDS011;52977;44.816;20.538;2023-08-21T08:46:21;22.08;;;13.88;;
66175;SDS011;52977;44.816;20.538;2023-08-21T08:48:50;19.65;;;13.75;;
66175;SDS011;52977;44.816;20.538;2023-08-21T08:51:18;26.20;;;13.88;;
66175;SDS011;52977;44.816;20.538;2023-08-21T08:53:44;22.38;;;14.27;;
66175;SDS011;52977;44.816;20.538;2023-08-21T08:56:11;25.27;;;13.75;;
66175;SDS011;52977;44.816;20.538;2023-08-21T08:58:37;24.00;;;15.63;;
66175;SDS011;52977;44.816;20.538;2023-08-21T09:01:03;23.83;;;14.15;;
66175;SDS011;52977;44.816;20.538;2023-08-21T09:03:29;28.90;;;15.48;;
66175;SDS011;52977;44.816;20.538;2023-08-21T09:05:56;29.27;;;14.75;;
66175;SDS011;52977;44.816;20.538;2023-08-21T09:08:26;26.25;;;14.90;;
66175;SDS011;52977;44.816;20.538;2023-08-21T09:10:52;23.85;;;14.60;;
66175;SDS011;52977;44.816;20.538;2023-08-21T09:13:19;26.42;;;16.05;;
66175;SDS011;52977;44.816;20.538;2023-08-21T09:15:46;25.30;;;14.60;;
66175;SDS011;52977;44.816;20.538;2023-08-21T09:18:14;23.80;;;14.75;;
66175;SDS011;52977;44.816;20.538;2023-08-21T09:20:41;27.13;;;14.30;;
66175;SDS011;52977;44.816;20.538;2023-08-21T09:23:09;23.98;;;14.63;;
66175;SDS011;52977;44.816;20.538;2023-08-21T09:25:40;24.35;;;14.77;;
66175;SDS011;52977;44.816;20.538;2023-08-21T09:28:07;22.42;;;14.00;;
66175;SDS011;52977;44.816;20.538;2023-08-21T09:30:44;24.48;;;13.82;;
66175;SDS011;52977;44.816;20.538;2023-08-21T09:33:10;19.65;;;13.48;;
66175;SDS011;52977;44.816;20.538;2023-08-21T09:35:37;22.50;;;13.52;;
66175;SDS011;52977;44.816;20.538;2023-08-21T09:38:03;20.20;;;13.57;;
66175;SDS011;52977;44.816;20.538;2023-08-21T09:40:30;24.92;;;13.95;;
66175;SDS011;52977;44.816;20.538;2023-08-21T09:42:56;21.42;;;12.65;;
66175;SDS011;52977;44.816;20.538;2023-08-21T09:45:23;20.95;;;12.63;;
66175;SDS011;52977;44.816;20.538;2023-08-21T09:47:51;19.92;;;12.40;;
66175;SDS011;52977;44.816;20.538;2023-08-21T09:50:18;18.20;;;12.07;;
66175;SDS011;52977;44.816;20.538;2023-08-21T09:52:45;21.08;;;12.50;;
66175;SDS011;52977;44.816;20.538;2023-08-21T09:55:15;18.88;;;11.68;;
66175;SDS011;52977;44.816;20.538;2023-08-21T09:57:41;14.93;;;10.70;;
66175;SDS011;52977;44.816;20.538;2023-08-21T10:00:08;17.63;;;11.80;;
66175;SDS011;52977;44.816;20.538;2023-08-21T10:02:44;20.00;;;12.10;;
66175;SDS011;52977;44.816;20.538;2023-08-21T10:05:16;18.38;;;11.65;;
66175;SDS011;52977;44.816;20.538;2023-08-21T10:07:47;18.88;;;11.80;;
66175;SDS011;52977;44.816;20.538;2023-08-21T10:10:18;16.50;;;11.05;;
66175;SDS011;52977;44.816;20.538;2023-08-21T10:12:44;16.08;;;11.25;;
66175;SDS011;52977;44.816;20.538;2023-08-21T10:15:10;16.48;;;11.00;;
66175;SDS011;52977;44.816;20.538;2023-08-21T10:17:37;16.75;;;10.93;;
66175;SDS011;52977;44.816;20.538;2023-08-21T10:20:07;15.73;;;10.60;;
66175;SDS011;52977;44.816;20.538;2023-08-21T10:22:39;16.13;;;10.82;;
66175;SDS011;52977;44.816;20.538;2023-08-21T10:27:57;15.45;;;10.18;;
66175;SDS011;52977;44.816;20.538;2023-08-21T10:30:26;16.00;;;10.82;;
66175;SDS011;52977;44.816;20.538;2023-08-21T10:32:54;14.57;;;10.40;;
66175;SDS011;52977;44.816;20.538;2023-08-21T10:35:29;14.65;;;10.07;;
66175;SDS011;52977;44.816;20.538;2023-08-21T10:38:18;16.38;;;11.43;;
66175;SDS011;52977;44.816;20.538;2023-08-21T10:41:05;15.45;;;10.82;;
66175;SDS011;52977;44.816;20.538;2023-08-21T10:43:41;13.40;;;10.25;;
66175;SDS011;52977;44.816;20.538;2023-08-21T10:46:10;15.60;;;10.75;;
66175;SDS011;52977;44.816;20.538;2023-08-21T10:48:37;14.85;;;9.95;;
66175;SDS011;52977;44.816;20.538;2023-08-21T10:51:05;14.85;;;10.43;;
66175;SDS011;52977;44.816;20.538;2023-08-21T10:53:33;14.38;;;10.15;;
66175;SDS011;52977;44.816;20.538;2023-08-21T10:56:01;17.10;;;10.35;;
66175;SDS011;52977;44.816;20.538;2023-08-21T10:58:33;13.95;;;10.00;;
66175;SDS011;52977;44.816;20.538;2023-08-21T11:01:09;12.60;;;9.73;;
66175;SDS011;52977;44.816;20.538;2023-08-21T11:03:39;15.73;;;10.55;;
66175;SDS011;52977;44.816;20.538;2023-08-21T11:06:07;15.48;;;9.52;;
66175;SDS011;52977;44.816;20.538;2023-08-21T11:08:35;13.43;;;9.45;;
66175;SDS011;52977;44.816;20.538;2023-08-21T11:11:03;14.45;;;9.38;;
66175;SDS011;52977;44.816;20.538;2023-08-21T11:13:31;12.65;;;9.05;;
66175;SDS011;52977;44.816;20.538;2023-08-21T11:15:58;13.07;;;8.48;;
66175;SDS011;52977;44.816;20.538;2023-08-21T11:18:32;14.98;;;9.75;;
66175;SDS011;52977;44.816;20.538;2023-08-21T11:21:04;13.30;;;10.15;;
66175;SDS011;52977;44.816;20.538;2023-08-21T11:23:32;14.07;;;9.75;;
66175;SDS011;52977;44.816;20.538;2023-08-21T11:26:00;15.15;;;9.65;;
66175;SDS011;52977;44.816;20.538;2023-08-21T11:28:28;14.45;;;9.65;;
66175;SDS011;52977;44.816;20.538;2023-08-21T11:30:58;12.20;;;9.10;;
66175;SDS011;52977;44.816;20.538;2023-08-21T11:33:25;12.52;;;9.10;;
66175;SDS011;52977;44.816;20.538;2023-08-21T11:35:54;11.90;;;9.15;;
66175;SDS011;52977;44.816;20.538;2023-08-21T11:38:23;14.15;;;10.25;;
66175;SDS011;52977;44.816;20.538;2023-08-21T11:40:58;13.25;;;9.55;;
66175;SDS011;52977;44.816;20.538;2023-08-21T11:43:39;15.88;;;10.13;;
66175;SDS011;52977;44.816;20.538;2023-08-21T11:46:08;11.95;;;9.05;;
66175;SDS011;52977;44.816;20.538;2023-08-21T11:48:55;12.88;;;9.45;;
66175;SDS011;52977;44.816;20.538;2023-08-21T11:51:21;13.43;;;9.80;;
66175;SDS011;52977;44.816;20.538;2023-08-21T11:53:48;12.98;;;9.18;;
66175;SDS011;52977;44.816;20.538;2023-08-21T11:56:33;15.73;;;9.23;;
66175;SDS011;52977;44.816;20.538;2023-08-21T11:59:02;12.43;;;9.27;;
66175;SDS011;52977;44.816;20.538;2023-08-21T12:01:32;16.35;;;9.10;;
66175;SDS011;52977;44.816;20.538;2023-08-21T12:03:59;14.00;;;9.88;;
66175;SDS011;52977;44.816;20.538;2023-08-21T12:06:25;13.15;;;9.25;;
66175;SDS011;52977;44.816;20.538;2023-08-21T12:08:52;14.30;;;9.27;;
66175;SDS011;52977;44.816;20.538;2023-08-21T12:11:18;13.48;;;9.00;;
66175;SDS011;52977;44.816;20.538;2023-08-21T12:13:43;13.90;;;8.93;;
66175;SDS011;52977;44.816;20.538;2023-08-21T12:16:10;12.02;;;9.05;;
66175;SDS011;52977;44.816;20.538;2023-08-21T12:18:38;14.55;;;8.90;;
66175;SDS011;52977;44.816;20.538;2023-08-21T12:21:04;11.55;;;8.95;;
66175;SDS011;52977;44.816;20.538;2023-08-21T12:23:30;11.60;;;8.05;;
66175;SDS011;52977;44.816;20.538;2023-08-21T12:25:59;15.57;;;8.93;;
66175;SDS011;52977;44.816;20.538;2023-08-21T12:28:25;11.93;;;8.68;;
66175;SDS011;52977;44.816;20.538;2023-08-21T12:30:51;13.55;;;8.80;;
66175;SDS011;52977;44.816;20.538;2023-08-21T12:33:17;13.95;;;9.43;;
66175;SDS011;52977;44.816;20.538;2023-08-21T12:35:44;12.27;;;8.93;;
66175;SDS011;52977;44.816;20.538;2023-08-21T12:38:11;13.90;;;8.27;;
66175;SDS011;52977;44.816;20.538;2023-08-21T12:40:39;11.10;;;8.18;;
66175;SDS011;52977;44.816;20.538;2023-08-21T12:43:05;11.18;;;8.00;;
66175;SDS011;52977;44.816;20.538;2023-08-21T12:45:32;12.05;;;8.85;;
66175;SDS011;52977;44.816;20.538;2023-08-21T12:47:58;12.30;;;8.18;;
66175;SDS011;52977;44.816;20.538;2023-08-21T12:50:24;11.63;;;8.55;;
66175;SDS011;52977;44.816;20.538;2023-08-21T12:52:51;12.57;;;9.00;;
66175;SDS011;52977;44.816;20.538;2023-08-21T12:55:17;12.05;;;8.13;;
66175;SDS011;52977;44.816;20.538;2023-08-21T12:57:44;12.43;;;8.48;;
66175;SDS011;52977;44.816;20.538;2023-08-21T13:00:11;12.65;;;8.07;;
66175;SDS011;52977;44.816;20.538;2023-08-21T13:02:37;13.20;;;8.43;;
66175;SDS011;52977;44.816;20.538;2023-08-21T13:05:04;14.20;;;7.90;;
66175;SDS011;52977;44.816;20.538;2023-08-21T13:07:33;12.65;;;7.72;;
66175;SDS011;52977;44.816;20.538;2023-08-21T13:09:59;11.15;;;7.60;;
66175;SDS011;52977;44.816;20.538;2023-08-21T13:12:25;9.90;;;7.65;;
66175;SDS011;52977;44.816;20.538;2023-08-21T13:14:52;13.73;;;9.27;;
66175;SDS011;52977;44.816;20.538;2023-08-21T13:17:18;11.02;;;7.68;;
66175;SDS011;52977;44.816;20.538;2023-08-21T13:19:45;10.98;;;7.60;;
66175;SDS011;52977;44.816;20.538;2023-08-21T13:22:11;10.18;;;7.25;;
66175;SDS011;52977;44.816;20.538;2023-08-21T13:24:38;9.65;;;7.18;;
66175;SDS011;52977;44.816;20.538;2023-08-21T13:27:04;11.93;;;8.10;;
66175;SDS011;52977;44.816;20.538;2023-08-21T13:29:31;14.05;;;7.65;;
66175;SDS011;52977;44.816;20.538;2023-08-21T13:31:57;9.65;;;7.55;;
66175;SDS011;52977;44.816;20.538;2023-08-21T13:34:24;11.07;;;7.63;;
66175;SDS011;52977;44.816;20.538;2023-08-21T13:36:51;11.60;;;7.30;;
66175;SDS011;52977;44.816;20.538;2023-08-21T13:39:17;13.27;;;7.47;;
66175;SDS011;52977;44.816;20.538;2023-08-21T13:41:43;11.18;;;7.20;;
66175;SDS011;52977;44.816;20.538;2023-08-21T13:44:10;10.98;;;7.55;;
66175;SDS011;52977;44.816;20.538;2023-08-21T13:46:37;9.63;;;7.03;;
66175;SDS011;52977;44.816;20.538;2023-08-21T13:49:04;8.80;;;6.85;;
66175;SDS011;52977;44.816;20.538;2023-08-21T13:51:30;9.93;;;7.05;;
66175;SDS011;52977;44.816;20.538;2023-08-21T13:53:57;9.20;;;7.00;;
66175;SDS011;52977;44.816;20.538;2023-08-21T13:56:24;9.20;;;6.70;;
66175;SDS011;52977;44.816;20.538;2023-08-21T13:58:50;11.10;;;7.05;;
66175;SDS011;52977;44.816;20.538;2023-08-21T14:01:16;10.75;;;6.97;;
66175;SDS011;52977;44.816;20.538;2023-08-21T14:03:43;8.68;;;6.68;;
66175;SDS011;52977;44.816;20.538;2023-08-21T14:06:15;11.60;;;6.90;;
66175;SDS011;52977;44.816;20.538;2023-08-21T14:08:41;11.43;;;7.38;;
66175;SDS011;52977;44.816;20.538;2023-08-21T14:11:08;10.10;;;6.82;;
66175;SDS011;52977;44.816;20.538;2023-08-21T14:13:35;8.90;;;6.60;;
66175;SDS011;52977;44.816;20.538;2023-08-21T14:16:01;9.85;;;7.10;;
66175;SDS011;52977;44.816;20.538;2023-08-21T14:18:28;9.07;;;6.35;;
66175;SDS011;52977;44.816;20.538;2023-08-21T14:20:54;11.75;;;6.90;;
66175;SDS011;52977;44.816;20.538;2023-08-21T14:23:21;9.45;;;6.45;;
66175;SDS011;52977;44.816;20.538;2023-08-21T14:25:47;10.80;;;6.68;;